Time;durP1;ratioP1;P1;durP2;ratioP2;P2;SDS_P1;SDS_P2;PMS_P1;PMS_P2;Temp;Humidity;BMP_temperature;BMP_pressure;BME280_temperature;BME280_humidity;BME280_pressure;Samples;Min_cycle;Max_cycle;Signal;HPM_P1;HPM_P2
2021/08/27 00:01:49;;;;;;;;;8.00;7.33;;;;;18.52;53.46;101585.50;5076642;28;45246;-91
2021/08/27 00:04:14;;;;;;;;;6.67;4.67;;;;;18.51;53.63;101573.06;5093766;27;45362;-90
2021/08/27 00:06:40;;;;;;;;;6.33;6.00;;;;;18.55;53.21;101585.50;5076216;28;46143;-89
2021/08/27 00:09:05;;;;;;;;;8.00;4.33;;;;;18.52;53.60;101588.19;5093714;27;45429;-90
2021/08/27 00:11:31;;;;;;;;;5.00;4.67;;;;;18.48;53.39;101578.41;5078358;28;45414;-90
2021/08/27 00:13:57;;;;;;;;;6.33;6.33;;;;;18.35;53.65;101551.84;5077925;28;45338;-89
2021/08/27 00:16:22;;;;;;;;;9.33;7.33;;;;;18.41;53.89;101566.91;5079606;28;47591;-91
2021/08/27 00:18:47;;;;;;;;;8.00;5.00;;;;;18.40;53.82;101558.00;5079987;28;45449;-91
2021/08/27 00:21:13;;;;;;;;;7.67;5.67;;;;;18.34;53.91;101546.53;5097277;27;45430;-90
2021/08/27 00:23:39;;;;;;;;;8.00;4.00;;;;;18.33;53.91;101547.41;5098237;27;45474;-91
2021/08/27 00:26:07;;;;;;;;;5.67;5.00;;;;;18.48;53.95;101567.78;5080302;28;46910;-90
2021/08/27 00:28:33;;;;;;;;;8.67;5.67;;;;;18.35;53.88;101550.94;5082606;28;45467;-91
2021/08/27 00:31:11;;;;;;;;;;;;;;;;;;;;;
2021/08/27 00:33:37;;;;;;;;;12.00;7.00;;;;;18.33;54.01;101547.41;5082605;27;64673;-90
2021/08/27 00:36:03;;;;;;;;;6.00;6.00;;;;;18.31;54.30;101534.09;5091021;28;45586;-89
2021/08/27 00:38:29;;;;;;;;;8.33;6.00;;;;;18.31;54.14;101539.41;5105857;28;44744;-90
2021/08/27 00:40:54;;;;;;;;;6.33;5.00;;;;;18.42;53.90;101551.81;5102296;28;45513;-90
2021/08/27 00:43:20;;;;;;;;;5.00;3.67;;;;;18.30;54.02;101526.97;5122410;27;44934;-89
2021/08/27 00:45:45;;;;;;;;;9.00;5.33;;;;;18.44;54.23;101558.91;5105177;28;47200;-89
2021/08/27 00:48:13;;;;;;;;;8.67;6.67;;;;;18.37;54.31;101543.84;5121864;27;44870;-90
2021/08/27 00:50:38;;;;;;;;;8.33;6.00;;;;;18.33;54.25;101537.63;5103488;28;44771;-89
2021/08/27 00:53:04;;;;;;;;;10.00;6.67;;;;;18.49;54.34;101564.19;5104914;28;44770;-88
2021/08/27 00:55:29;;;;;;;;;9.67;6.33;;;;;18.47;54.39;101565.97;5104145;28;47124;-90
2021/08/27 00:57:56;;;;;;;;;7.33;5.33;;;;;18.47;54.10;101560.66;5102565;27;45319;-92
2021/08/27 01:00:21;;;;;;;;;7.67;7.00;;;;;18.31;54.56;101534.09;5081253;28;45478;-90
2021/08/27 01:02:47;;;;;;;;;8.33;5.67;;;;;18.45;54.37;101557.13;5080701;28;45535;-91
2021/08/27 01:05:13;;;;;;;;;6.33;5.67;;;;;18.44;54.37;101553.59;5081866;27;45534;-90
2021/08/27 01:07:48;;;;;;;;;7.00;6.00;;;;;18.35;54.16;101546.50;5079596;28;45432;-91
2021/08/27 01:10:31;;;;;;;;;7.67;6.00;;;;;18.40;54.41;101555.34;5081302;28;45469;-90
2021/08/27 01:13:10;;;;;;;;;5.67;5.33;;;;;18.39;54.66;101548.28;5079579;28;45611;-89
2021/08/27 01:15:46;;;;;;;;;12.00;7.67;;;;;18.25;54.60;101524.31;5080552;28;45587;-90
2021/08/27 01:18:27;;;;;;;;;11.00;9.33;;;;;18.19;54.72;101524.34;5078806;27;45380;-91
2021/08/27 01:21:11;;;;;;;;;4.67;4.00;;;;;18.31;54.83;101541.19;5080049;28;45466;-90
2021/08/27 01:23:43;;;;;;;;;10.67;5.67;;;;;18.30;54.90;101547.41;5081075;28;45408;-90
2021/08/27 01:26:09;;;;;;;;;7.67;6.00;;;;;18.21;55.28;101533.22;5078348;28;48369;-90
2021/08/27 01:28:40;;;;;;;;;7.67;3.00;;;;;18.16;55.28;101522.56;5080882;28;45305;-90
2021/08/27 01:31:27;;;;;;;;;8.00;5.00;;;;;18.29;55.20;101541.19;5078999;28;45476;-91
2021/08/27 01:34:12;;;;;;;;;9.67;7.00;;;;;18.30;54.82;101550.94;5082306;28;45280;-90
2021/08/27 01:36:42;;;;;;;;;6.67;5.67;;;;;18.27;55.14;101542.97;5083887;28;47091;-90
2021/08/27 01:39:10;;;;;;;;;8.67;6.67;;;;;18.13;55.12;101534.97;5088239;28;45577;-90
2021/08/27 01:41:39;;;;;;;;;7.67;6.67;;;;;18.16;55.35;101541.19;5089086;28;45429;-91
2021/08/27 01:44:05;;;;;;;;;7.33;7.00;;;;;18.14;55.37;101550.94;5121531;27;44767;-89
2021/08/27 01:46:34;;;;;;;;;5.00;5.00;;;;;18.06;55.36;101537.63;5105787;27;47371;-90
2021/08/27 01:49:01;;;;;;;;;7.33;5.67;;;;;18.05;55.55;101542.97;5105592;27;44818;-90
2021/08/27 01:51:32;;;;;;;;;6.33;6.00;;;;;17.97;55.18;101534.09;5104870;27;44740;-90
2021/08/27 01:53:59;;;;;;;;;5.67;5.00;;;;;17.97;55.64;101540.31;5104280;27;44848;-90
2021/08/27 01:56:26;;;;;;;;;6.67;5.00;;;;;17.85;55.45;101522.59;5083435;28;47656;-92
2021/08/27 01:58:52;;;;;;;;;8.67;7.00;;;;;17.92;55.62;101540.31;5096475;27;45374;-92
2021/08/27 02:01:25;;;;;;;;;8.00;7.00;;;;;17.83;55.98;101540.28;5081304;28;45342;-90
2021/08/27 02:03:52;;;;;;;;;9.00;6.00;;;;;17.78;56.18;101535.00;5108083;27;45520;-90
2021/08/27 02:06:18;;;;;;;;;11.33;6.00;;;;;17.75;56.28;101532.31;5109280;27;47329;-90
2021/08/27 02:08:45;;;;;;;;;10.67;6.33;;;;;17.77;56.35;101540.28;5088900;28;45194;-90
2021/08/27 02:11:11;;;;;;;;;10.00;8.00;;;;;17.66;56.21;101525.22;5082401;28;45454;-89
2021/08/27 02:13:38;;;;;;;;;12.00;7.00;;;;;17.63;56.34;101519.03;5108422;27;45510;-89
2021/08/27 02:16:06;;;;;;;;;8.00;6.00;;;;;17.61;56.57;101532.34;5091877;28;47355;-90
2021/08/27 02:18:32;;;;;;;;;6.00;5.00;;;;;17.71;56.48;101544.75;5090259;28;45433;-89
2021/08/27 02:21:14;;;;;;;;;6.67;5.33;;;;;17.50;56.95;101520.78;5109445;27;44835;-91
2021/08/27 02:23:44;;;;;;;;;12.33;7.00;;;;;17.70;56.71;101550.06;5091322;28;45314;-90
2021/08/27 02:26:12;;;;;;;;;7.67;7.33;;;;;17.64;56.54;101552.72;5099397;28;45466;-91
2021/08/27 02:28:48;;;;;;;;;7.67;6.67;;;;;17.62;56.68;101543.84;5116446;27;44815;-91
2021/08/27 02:31:25;;;;;;;;;11.33;8.67;;;;;17.56;56.86;101531.44;5105431;27;45452;-91
2021/08/27 02:33:52;;;;;;;;;9.00;7.00;;;;;17.50;57.19;101534.06;5089458;27;45332;-92
2021/08/27 02:36:30;;;;;;;;;10.67;6.33;;;;;17.61;56.90;101558.91;5097196;27;47283;-91
2021/08/27 02:38:59;;;;;;;;;6.67;5.67;;;;;17.59;57.22;101568.66;5078163;28;45267;-91
2021/08/27 02:41:24;;;;;;;;;10.00;7.33;;;;;17.49;57.12;101551.81;5080004;28;45363;-91
2021/08/27 02:43:50;;;;;;;;;10.00;6.00;;;;;17.48;57.30;101553.59;5095784;27;45546;-92
2021/08/27 02:46:16;;;;;;;;;10.67;5.33;;;;;17.53;57.39;101560.69;5078715;28;46926;-91
2021/08/27 02:48:41;;;;;;;;;9.67;6.00;;;;;17.52;57.26;101556.22;5079749;28;45366;-92
2021/08/27 02:51:18;;;;;;;;;7.00;5.33;;;;;17.34;57.68;101534.94;5078524;28;45445;-91
2021/08/27 02:53:50;;;;;;;;;6.33;4.67;;;;;17.40;57.00;101552.69;5095093;27;45228;-92
2021/08/27 02:56:22;;;;;;;;;8.00;7.00;;;;;17.40;56.88;101558.00;5077443;28;47156;-91
2021/08/27 02:58:50;;;;;;;;;10.00;5.33;;;;;17.44;57.14;101565.09;5094584;27;45832;-91
2021/08/27 03:01:24;;;;;;;;;13.00;6.67;;;;;17.32;57.84;101544.66;5078949;27;45460;-92
2021/08/27 03:04:13;;;;;;;;;7.00;6.00;;;;;17.32;57.34;101546.47;5078152;28;45336;-92
2021/08/27 03:07:05;;;;;;;;;5.00;5.00;;;;;17.35;57.65;101546.47;5078919;28;46607;-91
2021/08/27 03:09:43;;;;;;;;;10.00;6.00;;;;;17.31;57.51;101542.03;5095203;27;45419;-91
2021/08/27 03:12:16;;;;;;;;;8.00;7.00;;;;;17.41;57.59;101562.41;5094913;28;44686;-91
2021/08/27 03:14:51;;;;;;;;;9.67;5.00;;;;;17.41;57.87;101561.56;5109616;27;45265;-89
2021/08/27 03:17:19;;;;;;;;;8.67;5.00;;;;;17.40;57.75;101560.66;5090232;28;45340;-90
2021/08/27 03:20:10;;;;;;;;;9.00;5.33;;;;;17.38;57.54;101548.25;5087310;28;45216;-91
2021/08/27 03:22:44;;;;;;;;;6.00;6.00;;;;;17.30;58.06;101542.91;5101205;27;44813;-92
2021/08/27 03:25:14;;;;;;;;;10.00;7.00;;;;;17.35;57.77;101547.34;5083323;28;45337;-92
2021/08/27 03:27:49;;;;;;;;;7.00;6.00;;;;;17.32;57.98;101549.13;5087411;28;45871;-91
2021/08/27 03:30:21;;;;;;;;;7.33;6.00;;;;;17.33;58.30;101545.56;5109202;27;45247;-89
2021/08/27 03:32:50;;;;;;;;;6.00;5.33;;;;;17.29;57.86;101536.72;5105564;27;45269;-89
2021/08/27 03:35:18;;;;;;;;;6.00;6.00;;;;;17.28;57.95;101534.06;5092457;28;45337;-91
2021/08/27 03:37:44;;;;;;;;;8.33;6.00;;;;;17.17;58.33;101513.66;5103265;27;45551;-92
2021/08/27 03:40:12;;;;;;;;;12.00;8.00;;;;;17.20;58.29;101520.72;5097693;27;45717;-90
2021/08/27 03:42:52;;;;;;;;;8.33;7.00;;;;;17.23;58.07;101526.97;5080806;28;45275;-89
2021/08/27 03:45:38;;;;;;;;;6.33;5.33;;;;;17.35;58.36;101542.03;5095628;27;45919;-89
2021/08/27 03:48:07;;;;;;;;;10.33;6.00;;;;;17.32;58.35;101533.19;5094558;27;46751;-89
2021/08/27 03:50:33;;;;;;;;;6.33;5.00;;;;;17.33;58.33;101534.94;5082217;28;45718;-90
2021/08/27 03:52:59;;;;;;;;;10.67;7.00;;;;;17.36;58.03;101534.97;5082372;28;45279;-92
2021/08/27 03:55:27;;;;;;;;;6.00;5.67;;;;;17.28;58.17;101520.78;5080727;28;45247;-93
2021/08/27 03:57:55;;;;;;;;;8.33;7.00;;;;;17.32;58.33;101525.22;5097270;27;47289;-92
2021/08/27 04:00:23;;;;;;;;;9.67;6.00;;;;;17.35;58.46;101528.75;5081453;28;45323;-89
2021/08/27 04:02:52;;;;;;;;;8.00;6.33;;;;;17.46;58.33;101544.72;5080536;28;45269;-89
2021/08/27 04:05:22;;;;;;;;;7.00;7.00;;;;;17.41;58.52;101532.31;5097687;27;45460;-90
2021/08/27 04:07:53;;;;;;;;;9.67;6.33;;;;;17.44;58.48;101533.19;5097440;27;47659;-89
2021/08/27 04:10:21;;;;;;;;;7.67;7.00;;;;;17.43;58.54;101531.41;5079659;28;45452;-91
2021/08/27 04:12:47;;;;;;;;;10.00;7.00;;;;;17.43;58.71;101527.88;5097195;27;45502;-91
2021/08/27 04:15:15;;;;;;;;;9.00;7.00;;;;;17.46;58.66;101542.06;5080569;27;45413;-91
2021/08/27 04:17:41;;;;;;;;;14.00;7.67;;;;;17.40;58.56;101534.09;5081367;28;46321;-91
2021/08/27 04:20:10;;;;;;;;;10.67;5.00;;;;;17.31;58.95;101510.13;5097416;27;45481;-92
2021/08/27 04:22:39;;;;;;;;;13.67;6.00;;;;;17.36;58.78;101519.88;5080379;28;45401;-91
2021/08/27 04:25:05;;;;;;;;;10.33;6.67;;;;;17.39;58.84;101524.31;5080328;28;45469;-91
2021/08/27 04:27:31;;;;;;;;;11.33;8.00;;;;;17.31;58.92;101507.47;5084541;28;48440;-90
2021/08/27 04:29:56;;;;;;;;;10.00;7.00;;;;;17.47;59.18;101534.97;5083377;28;46033;-92
2021/08/27 04:32:22;;;;;;;;;11.00;9.33;;;;;17.43;58.90;101533.22;5082030;28;45539;-91
2021/08/27 04:34:48;;;;;;;;;10.00;7.00;;;;;17.34;58.76;101513.66;5102874;27;45463;-91
2021/08/27 04:37:13;;;;;;;;;8.67;6.00;;;;;17.51;59.04;101538.53;5087907;28;48255;-90
2021/08/27 04:39:39;;;;;;;;;7.33;7.33;;;;;17.43;59.03;101534.06;5086165;28;45268;-92
2021/08/27 04:42:05;;;;;;;;;10.67;7.67;;;;;17.42;59.21;101534.97;5098364;27;45396;-92
2021/08/27 04:44:31;;;;;;;;;9.67;6.33;;;;;17.45;59.11;101542.06;5097122;27;45400;-91
2021/08/27 04:46:56;;;;;;;;;8.67;8.67;;;;;17.46;59.40;101531.44;5096255;27;48517;-92
2021/08/27 04:49:22;;;;;;;;;7.67;7.67;;;;;17.34;59.23;101513.66;5080776;27;45307;-91
2021/08/27 04:51:48;;;;;;;;;11.67;6.67;;;;;17.46;59.10;101533.19;5079340;28;45283;-92
2021/08/27 04:54:14;;;;;;;;;8.33;6.00;;;;;17.47;59.20;101541.16;5062792;28;45509;-92
2021/08/27 04:56:39;;;;;;;;;10.00;7.33;;;;;17.45;59.30;101536.75;5079705;28;46778;-92
2021/08/27 04:59:05;;;;;;;;;10.67;7.33;;;;;17.56;59.31;101555.34;5096792;27;46279;-92
2021/08/27 05:01:30;;;;;;;;;11.33;8.33;;;;;17.53;59.34;101550.03;5095616;27;45321;-91
2021/08/27 05:03:58;;;;;;;;;11.33;8.00;;;;;17.55;59.35;101557.16;5096810;27;45345;-91
2021/08/27 05:06:24;;;;;;;;;9.33;9.00;;;;;17.53;59.48;101555.38;5079137;28;47315;-85
2021/08/27 05:08:49;;;;;;;;;16.33;8.67;;;;;17.55;59.44;101561.56;5096118;27;45379;-83
2021/08/27 05:11:15;;;;;;;;;8.33;6.67;;;;;17.62;59.59;101573.09;5099744;27;45383;-84
2021/08/27 05:13:41;;;;;;;;;11.00;9.00;;;;;17.63;59.39;101566.88;5099727;27;45308;-84
2021/08/27 05:16:07;;;;;;;;;13.00;9.00;;;;;17.69;59.40;101582.84;5088647;27;47082;-83
2021/08/27 05:18:32;;;;;;;;;15.33;9.00;;;;;17.70;59.32;101574.88;5079102;28;45179;-83
2021/08/27 05:20:58;;;;;;;;;14.67;9.00;;;;;17.72;59.42;101582.88;5079013;27;45280;-84
2021/08/27 05:23:24;;;;;;;;;12.00;7.33;;;;;17.73;59.83;101578.41;5079268;27;45404;-83
2021/08/27 05:25:50;;;;;;;;;13.67;9.33;;;;;17.75;59.44;101589.94;5078496;27;45355;-84
2021/08/27 05:28:16;;;;;;;;;11.67;8.00;;;;;17.75;59.85;101581.97;5078638;27;45263;-84
2021/08/27 05:30:41;;;;;;;;;14.67;10.00;;;;;17.77;59.55;101586.41;5078665;27;45393;-84
2021/08/27 05:33:07;;;;;;;;;9.67;9.00;;;;;17.78;59.55;101581.97;5080481;27;45511;-84
2021/08/27 05:35:32;;;;;;;;;11.33;9.00;;;;;17.83;59.69;101588.16;5080922;27;45737;-84
2021/08/27 05:37:58;;;;;;;;;15.00;9.00;;;;;17.86;59.64;101588.19;5081030;27;45383;-84
2021/08/27 05:40:23;;;;;;;;;9.33;8.67;;;;;17.81;59.45;101581.97;5085264;27;45532;-83
2021/08/27 05:42:49;;;;;;;;;12.33;9.33;;;;;17.85;59.46;101594.41;5081020;27;45405;-84
2021/08/27 05:45:15;;;;;;;;;14.00;10.00;;;;;17.88;59.61;101598.81;5078444;27;46465;-83
2021/08/27 05:47:42;;;;;;;;;13.00;11.67;;;;;17.82;59.42;101581.09;5078369;27;45319;-83
2021/08/27 05:50:09;;;;;;;;;13.67;10.67;;;;;17.88;59.45;101593.50;5078905;27;45358;-83
2021/08/27 05:52:34;;;;;;;;;10.67;8.67;;;;;17.87;59.61;101600.63;5074040;27;45733;-83
2021/08/27 05:55:00;;;;;;;;;13.00;10.00;;;;;17.82;59.35;101589.97;5070890;28;45757;-83
2021/08/27 05:57:25;;;;;;;;;13.67;9.00;;;;;17.86;59.44;101600.59;5078703;27;45373;-83
2021/08/27 05:59:50;;;;;;;;;15.00;8.33;;;;;17.82;59.65;101602.38;5081685;28;45499;-87
2021/08/27 06:02:16;;;;;;;;;10.67;9.67;;;;;17.88;59.71;101605.03;5080510;28;45384;-87
2021/08/27 06:04:41;;;;;;;;;11.00;8.00;;;;;17.89;59.83;101606.81;5078990;28;45939;-87
2021/08/27 06:07:07;;;;;;;;;12.00;10.00;;;;;17.90;59.81;101608.56;5078629;28;45348;-88
2021/08/27 06:09:32;;;;;;;;;12.67;10.00;;;;;17.90;59.98;101607.69;5080711;28;45325;-87
2021/08/27 06:11:58;;;;;;;;;10.00;9.00;;;;;17.93;59.54;101616.56;5082846;28;46129;-87
2021/08/27 06:14:23;;;;;;;;;14.00;12.33;;;;;17.82;59.76;101594.38;5098868;27;47228;-88
2021/08/27 06:16:48;;;;;;;;;16.00;11.33;;;;;17.83;59.77;101601.47;5082618;28;45390;-87
2021/08/27 06:19:14;;;;;;;;;13.00;11.00;;;;;17.81;60.04;101597.91;5077072;28;45577;-87
2021/08/27 06:21:40;;;;;;;;;11.33;9.67;;;;;17.78;60.12;101597.94;5077674;28;45568;-87
2021/08/27 06:24:06;;;;;;;;;13.33;11.33;;;;;17.88;60.12;101621.00;5078822;28;45399;-87
2021/08/27 06:26:31;;;;;;;;;13.67;10.67;;;;;17.83;60.01;101610.34;5078725;28;45260;-88
2021/08/27 06:29:00;;;;;;;;;13.00;11.00;;;;;17.89;59.91;101619.22;5077571;28;45247;-87
2021/08/27 06:31:26;;;;;;;;;13.67;10.33;;;;;17.87;59.95;101613.91;5077232;28;45444;-87
2021/08/27 06:33:51;;;;;;;;;19.33;13.67;;;;;17.87;60.02;101623.66;5078469;28;46344;-87
2021/08/27 06:36:17;;;;;;;;;13.00;10.67;;;;;17.82;60.05;101613.00;5078108;28;45239;-88
2021/08/27 06:38:42;;;;;;;;;11.67;10.67;;;;;17.85;60.35;101621.00;5077264;28;45299;-88
2021/08/27 06:41:08;;;;;;;;;15.67;13.67;;;;;17.85;60.36;101612.13;5094171;27;45500;-87
2021/08/27 06:43:37;;;;;;;;;14.00;12.33;;;;;17.89;60.49;101620.13;5078823;28;46228;-87
2021/08/27 06:46:09;;;;;;;;;14.67;10.33;;;;;18.04;60.44;101642.31;5078012;28;45242;-88
2021/08/27 06:48:35;;;;;;;;;15.00;12.33;;;;;18.08;60.40;101638.75;5078446;28;45337;-88
2021/08/27 06:51:02;;;;;;;;;13.00;12.00;;;;;18.09;60.08;101648.50;5078128;28;45339;-88
2021/08/27 06:53:27;;;;;;;;;15.00;12.67;;;;;18.04;60.23;101631.66;5078413;28;46625;-88
2021/08/27 06:55:53;;;;;;;;;13.00;11.33;;;;;18.13;60.35;101641.38;5078218;28;45287;-87
2021/08/27 06:58:18;;;;;;;;;15.00;13.67;;;;;18.22;60.02;101651.19;5078145;28;45378;-88
2021/08/27 07:00:45;;;;;;;;;14.33;11.33;;;;;18.21;59.78;101644.97;5078737;28;45317;-88
2021/08/27 07:03:10;;;;;;;;;15.33;13.33;;;;;18.28;59.79;101656.50;5076611;28;47436;-88
2021/08/27 07:05:36;;;;;;;;;13.33;12.00;;;;;18.32;60.32;101652.97;5078131;28;45365;-87
2021/08/27 07:08:03;;;;;;;;;13.33;12.33;;;;;18.36;60.01;101649.41;5085066;28;45379;-87
2021/08/27 07:10:28;;;;;;;;;17.00;13.67;;;;;18.40;60.00;101651.19;5092904;28;45407;-86
2021/08/27 07:12:54;;;;;;;;;20.00;15.33;;;;;18.48;59.88;101655.63;5084212;28;45360;-86
2021/08/27 07:15:21;;;;;;;;;15.33;12.00;;;;;18.47;59.95;101649.41;5080279;28;45160;-87
2021/08/27 07:17:46;;;;;;;;;13.67;13.00;;;;;18.59;60.00;101653.81;5076526;28;45430;-87
2021/08/27 07:20:13;;;;;;;;;22.00;12.33;;;;;18.63;59.44;101663.59;5078686;28;45384;-86
2021/08/27 07:22:39;;;;;;;;;16.33;12.67;;;;;18.71;59.73;101662.69;5077808;27;45967;-85
2021/08/27 07:25:05;;;;;;;;;18.67;14.33;;;;;18.71;59.36;101660.03;5076835;28;45365;-87
2021/08/27 07:27:31;;;;;;;;;16.33;12.33;;;;;18.84;59.01;101668.88;5077414;28;45165;-87
2021/08/27 07:29:56;;;;;;;;;15.00;11.67;;;;;18.88;59.23;101664.44;5078015;28;45405;-86
2021/08/27 07:32:22;;;;;;;;;11.00;10.00;;;;;18.93;58.76;101660.84;5075866;28;46517;-86
2021/08/27 07:34:48;;;;;;;;;15.00;12.67;;;;;18.96;58.81;101655.53;5077615;28;45504;-86
2021/08/27 07:37:14;;;;;;;;;15.67;13.33;;;;;18.97;58.35;101651.09;5078252;28;45397;-88
2021/08/27 07:39:40;;;;;;;;;17.00;13.00;;;;;19.09;58.48;101667.03;5078580;28;45327;-86
2021/08/27 07:42:06;;;;;;;;;14.00;14.00;;;;;19.15;58.31;101666.16;5079684;28;45555;-87
2021/08/27 07:44:33;;;;;;;;;14.67;13.00;;;;;19.25;58.41;101679.47;5078665;28;45287;-87
2021/08/27 07:46:58;;;;;;;;;14.00;12.00;;;;;19.24;58.06;101664.34;5077830;28;45323;-87
2021/08/27 07:49:24;;;;;;;;;13.33;13.00;;;;;19.30;58.40;101669.66;5077414;28;45391;-86
2021/08/27 07:51:51;;;;;;;;;22.00;12.33;;;;;19.29;57.98;101658.09;5077310;28;45449;-86
2021/08/27 07:54:17;;;;;;;;;12.67;10.67;;;;;19.41;57.99;101656.28;5077676;28;45267;-87
2021/08/27 07:56:43;;;;;;;;;13.67;10.67;;;;;19.56;57.69;101672.19;5077361;28;45388;-86
2021/08/27 07:59:09;;;;;;;;;12.33;9.67;;;;;19.62;57.44;101676.63;5077282;28;45397;-86
2021/08/27 08:01:35;;;;;;;;;17.00;13.00;;;;;19.60;57.13;101658.84;5077058;28;45417;-86
2021/08/27 08:04:01;;;;;;;;;16.00;12.67;;;;;19.74;56.83;101677.44;5077626;28;45410;-87
2021/08/27 08:06:27;;;;;;;;;14.67;11.33;;;;;19.66;57.03;101658.81;5078370;28;45439;-87
2021/08/27 08:08:53;;;;;;;;;15.33;11.00;;;;;19.76;56.96;101657.88;5078173;28;45294;-86
2021/08/27 08:11:18;;;;;;;;;16.33;13.33;;;;;19.75;56.35;101656.09;5078644;27;45428;-87
2021/08/27 08:13:44;;;;;;;;;15.00;11.00;;;;;19.79;56.39;101660.53;5079866;28;45389;-86
2021/08/27 08:16:09;;;;;;;;;12.00;10.00;;;;;19.90;56.61;101681.78;5087340;28;45296;-85
2021/08/27 08:18:35;;;;;;;;;16.00;10.33;;;;;19.91;56.15;101672.00;5085309;28;45342;-85
2021/08/27 08:21:04;;;;;;;;;17.00;11.00;;;;;19.90;55.77;101659.56;5082236;28;46349;-86
2021/08/27 08:23:29;;;;;;;;;9.67;9.33;;;;;19.94;55.94;101665.75;5077918;28;45424;-86
2021/08/27 08:25:55;;;;;;;;;10.67;8.67;;;;;19.96;55.64;101661.28;5080761;28;45273;-87
2021/08/27 08:28:21;;;;;;;;;8.67;8.00;;;;;20.10;54.99;101682.56;5079660;27;45271;-87
2021/08/27 08:30:48;;;;;;;;;8.33;6.33;;;;;20.03;54.44;101671.00;5080209;28;46614;-87
2021/08/27 08:33:13;;;;;;;;;7.67;6.33;;;;;20.12;54.17;101684.34;5080281;28;45300;-88
2021/08/27 08:35:38;;;;;;;;;7.00;6.00;;;;;20.11;54.15;101679.91;5081323;28;45250;-88
2021/08/27 08:38:04;;;;;;;;;8.67;8.00;;;;;20.17;54.48;101686.97;5085543;28;45379;-86
2021/08/27 08:40:29;;;;;;;;;13.67;7.00;;;;;20.20;53.98;101688.75;5094199;28;45435;-84
2021/08/27 08:42:55;;;;;;;;;6.33;5.00;;;;;20.16;53.69;101687.00;5097850;28;45382;-85
2021/08/27 08:45:20;;;;;;;;;11.00;7.67;;;;;20.23;53.83;101689.59;5095280;28;45971;-86
2021/08/27 08:47:47;;;;;;;;;11.33;7.33;;;;;20.25;53.73;101687.81;5095834;28;45225;-85
2021/08/27 08:50:16;;;;;;;;;9.00;6.00;;;;;20.26;53.85;101683.34;5088790;28;45503;-88
2021/08/27 08:52:42;;;;;;;;;7.33;6.33;;;;;20.30;53.65;101690.44;5088668;28;45952;-85
2021/08/27 08:55:08;;;;;;;;;8.00;5.33;;;;;20.32;52.74;101687.75;5099100;27;45352;-86
2021/08/27 08:57:33;;;;;;;;;5.00;5.00;;;;;20.33;53.05;101687.72;5080521;28;45407;-86
2021/08/27 08:59:59;;;;;;;;;4.00;4.00;;;;;20.56;52.76;101691.13;5082583;28;45420;-86
2021/08/27 09:02:26;;;;;;;;;8.33;6.00;;;;;20.82;52.19;101697.97;5080540;28;45341;-86
2021/08/27 09:04:52;;;;;;;;;10.67;5.00;;;;;21.07;52.07;101687.03;5078674;28;45251;-86
2021/08/27 09:07:17;;;;;;;;;7.67;6.00;;;;;21.39;51.54;101693.81;5078895;28;45429;-86
2021/08/27 09:09:43;;;;;;;;;8.67;6.33;;;;;21.70;50.23;101702.34;5080877;28;46182;-85
2021/08/27 09:12:25;;;;;;;;;6.67;5.00;;;;;21.98;50.42;101696.59;5083844;28;45349;-85
2021/08/27 09:14:59;;;;;;;;;8.67;6.67;;;;;22.12;50.13;101703.53;5082264;28;45225;-86
2021/08/27 09:17:36;;;;;;;;;10.00;5.67;;;;;22.13;49.67;101692.78;5082561;28;45172;-87
2021/08/27 09:20:07;;;;;;;;;8.67;7.33;;;;;22.10;49.08;101691.03;5081315;28;46661;-85
2021/08/27 09:22:52;;;;;;;;;5.00;4.67;;;;;22.38;48.94;101695.06;5095075;27;45359;-86
2021/08/27 09:25:20;;;;;;;;;6.67;5.33;;;;;22.71;48.61;101699.91;5080033;28;45288;-85
2021/08/27 09:28:04;;;;;;;;;7.67;5.67;;;;;23.11;47.88;101705.41;5081572;27;45440;-85
2021/08/27 09:30:32;;;;;;;;;4.67;4.00;;;;;23.45;46.48;101702.06;5083540;28;46647;-87
2021/08/27 09:33:13;;;;;;;;;6.00;6.00;;;;;23.65;46.29;101702.53;5080922;27;45338;-85
2021/08/27 09:35:39;;;;;;;;;6.67;5.00;;;;;23.97;46.42;101702.69;5079074;28;45441;-85
2021/08/27 09:38:14;;;;;;;;;7.00;5.00;;;;;24.15;45.62;101693.31;5079438;28;45314;-85
2021/08/27 09:40:40;;;;;;;;;5.00;4.00;;;;;24.32;45.13;101701.00;5078693;28;46090;-85
2021/08/27 09:43:06;;;;;;;;;8.00;5.00;;;;;24.47;44.97;101709.59;5079080;28;45358;-86
2021/08/27 09:45:33;;;;;;;;;7.67;5.00;;;;;24.58;43.73;101710.16;5079076;28;45350;-86
2021/08/27 09:48:10;;;;;;;;;7.33;4.33;;;;;24.66;43.31;101699.25;5078494;28;45418;-86
2021/08/27 09:50:37;;;;;;;;;4.67;4.00;;;;;24.81;43.65;101713.19;5078907;28;45925;-86
2021/08/27 09:53:08;;;;;;;;;7.67;6.67;;;;;24.82;42.84;101705.06;5079084;28;45254;-86
2021/08/27 09:55:36;;;;;;;;;7.33;5.33;;;;;25.01;42.81;101701.00;5079224;28;45408;-85
2021/08/27 09:58:01;;;;;;;;;6.00;5.00;;;;;25.28;42.46;101707.41;5078661;28;45395;-85
2021/08/27 10:00:27;;;;;;;;;4.00;3.00;;;;;25.34;41.98;101690.19;5078692;28;46064;-85
2021/08/27 10:02:53;;;;;;;;;6.33;4.67;;;;;25.64;42.23;101692.00;5078674;28;45304;-86
2021/08/27 10:05:34;;;;;;;;;4.33;4.00;;;;;25.79;41.42;101705.00;5079172;28;45255;-85
2021/08/27 10:08:11;;;;;;;;;4.67;4.33;;;;;26.00;41.07;101688.19;5079658;28;45361;-86
2021/08/27 10:10:37;;;;;;;;;6.00;4.00;;;;;26.23;41.09;101697.31;5079151;28;45382;-86
2021/08/27 10:13:03;;;;;;;;;6.67;4.33;;;;;26.35;40.86;101698.75;5078955;28;45457;-86
2021/08/27 10:15:28;;;;;;;;;6.00;4.00;;;;;26.55;40.27;101700.75;5078697;28;45378;-86
2021/08/27 10:17:54;;;;;;;;;5.33;3.00;;;;;26.51;39.53;101692.84;5080328;28;45318;-85
2021/08/27 10:20:19;;;;;;;;;4.00;4.00;;;;;26.59;39.38;101696.13;5078634;28;46855;-84
2021/08/27 10:22:45;;;;;;;;;4.00;3.00;;;;;26.61;39.40;101686.19;5080429;28;45422;-84
2021/08/27 10:25:12;;;;;;;;;4.00;4.00;;;;;26.58;39.29;101694.41;5081125;28;45444;-86
2021/08/27 10:27:38;;;;;;;;;3.00;2.00;;;;;26.60;38.91;101692.53;5080215;28;45394;-85
2021/08/27 10:30:06;;;;;;;;;2.33;1.67;;;;;26.64;38.34;101683.38;5080950;28;46240;-85
2021/08/27 10:32:41;;;;;;;;;4.00;2.33;;;;;26.53;38.83;101701.75;5081104;28;45317;-86
2021/08/27 10:35:08;;;;;;;;;2.00;1.00;;;;;26.64;38.88;101675.31;5081437;28;45409;-86
2021/08/27 10:37:45;;;;;;;;;1.67;1.67;;;;;27.04;38.41;101680.16;5087609;28;45341;-86
2021/08/27 10:40:22;;;;;;;;;3.00;3.00;;;;;28.10;37.15;101688.69;5099648;28;45329;-86
2021/08/27 10:42:49;;;;;;;;;1.00;1.00;;;;;29.43;36.80;101688.31;5100446;28;45350;-86
2021/08/27 10:45:16;;;;;;;;;2.00;2.00;;;;;30.69;35.51;101680.31;5101133;28;45459;-85
2021/08/27 10:48:18;;;;;;;;;2.00;1.00;;;;;32.06;33.49;101697.31;5101734;28;44823;-85
2021/08/27 10:50:49;;;;;;;;;3.00;2.00;;;;;32.98;32.13;101686.34;5059548;28;45607;-86
2021/08/27 10:53:30;;;;;;;;;2.67;2.67;;;;;33.76;31.12;101685.09;5053405;28;44789;-87
2021/08/27 10:55:57;;;;;;;;;2.33;2.00;;;;;34.25;30.85;101678.16;5051279;28;45249;-85
2021/08/27 10:58:38;;;;;;;;;1.00;1.00;;;;;33.90;28.34;101689.63;5056085;28;44733;-85
2021/08/27 11:01:03;;;;;;;;;2.67;2.00;;;;;32.72;29.11;101679.81;5056854;28;45502;-87
2021/08/27 11:04:09;;;;;;;;;2.00;2.00;;;;;31.69;30.16;101695.75;5058765;28;44834;-85
2021/08/27 11:07:03;;;;;;;;;2.33;2.33;;;;;31.28;31.06;101689.88;4979250;28;44806;-84
2021/08/27 11:09:30;;;;;;;;;2.00;2.00;;;;;30.92;30.59;101690.94;4961754;28;45374;-84
2021/08/27 11:12:22;;;;;;;;;2.00;2.00;;;;;30.39;31.03;101690.00;4960250;28;46180;-85
2021/08/27 11:14:52;;;;;;;;;2.00;0.00;;;;;29.90;31.82;101675.25;4957303;28;45308;-85
2021/08/27 11:17:18;;;;;;;;;2.33;2.00;;;;;29.72;31.73;101682.47;4960729;28;45431;-83
2021/08/27 11:19:58;;;;;;;;;2.00;2.00;;;;;29.49;32.17;101695.25;4959620;28;45416;-87
2021/08/27 11:22:27;;;;;;;;;4.33;4.33;;;;;29.16;32.00;101693.19;4956270;28;46113;-85
2021/08/27 11:25:23;;;;;;;;;3.00;2.67;;;;;28.90;31.98;101690.72;4956642;28;45386;-85
2021/08/27 11:28:10;;;;;;;;;4.00;3.00;;;;;28.89;32.45;101691.69;5014217;28;45384;-84
2021/08/27 11:30:38;;;;;;;;;3.00;3.00;;;;;28.99;32.91;101684.00;5015150;28;45491;-85